Raiford, Florida
Current Conditions -  °F | °C
As of 9:55 AM on Thursday 25 Dec 2014 (Local Time) from K42J Reporting Station
Overcast Overcast  
Wind Chill: 55°   Ceiling: 9500
Heat Index: 55°   Visibility: 10mi
Dew Point: 48°   Wind: 5mph
Humidity: 77%   Direction: 310°NW
Pressure: 30.21"   Gusts: NA
Location:  30.06°N, 82.24°W
Report Text: K42J 251455Z AUTO 31004KT 10SM OVC095 13/09 A3021 RMK AO1 TSNO
Loading
Personal Weather Stations






























Interactive Weather Map New forecast layout! Learn more

10-Day Weather Forecast

Advertisements
Track Severe Weather on mobile